Time,TemperatureF,DewpointF,PressureIn,WindDirection,WindDirectionDegrees,WindSpeedMPH,WindSpeedGustMPH,Humidity,HourlyPrecipIn,Conditions,Clouds,dailyrainin,SolarRadiationWatts/m^2,SoftwareType,DateUTC
2013-01-22 00:10:00,25.2,9.6,29.97,WNW,292,6.0,6.0,51,0.00,,,0.00,0,Wunderground v.1.15,2013-01-22 05:10:00,
2013-01-22 00:20:00,24.7,8.7,29.97,WSW,245,6.0,10.0,50,0.00,,,0.00,0,Wunderground v.1.15,2013-01-22 05:20:00,
2013-01-22 00:30:00,24.1,7.7,29.98,West,259,7.0,9.0,49,0.00,,,0.00,0,Wunderground v.1.15,2013-01-22 05:30:00,
2013-01-22 00:40:00,23.5,5.2,29.98,West,260,10.0,10.0,45,0.00,,,0.00,0,Wunderground v.1.15,2013-01-22 05:40:00,
2013-01-22 00:50:00,23.1,4.9,29.99,WSW,257,8.0,8.0,45,0.00,,,0.00,0,Wunderground v.1.15,2013-01-22 05:50:00,
2013-01-22 01:00:00,22.7,4.0,29.98,West,268,11.0,11.0,44,0.00,,,0.00,0,Wunderground v.1.15,2013-01-22 06:00:00,
2013-01-22 01:10:00,22.4,4.2,29.98,SW,236,8.0,8.0,45,0.00,,,0.00,0,Wunderground v.1.15,2013-01-22 06:10:00,
2013-01-22 01:20:00,22.2,4.5,29.99,West,275,3.0,6.0,46,0.00,,,0.00,0,Wunderground v.1.15,2013-01-22 06:20:00,
2013-01-22 01:30:00,21.8,3.7,29.99,WSW,258,6.0,20.0,45,0.00,,,0.00,0,Wunderground v.1.15,2013-01-22 06:30:00,
2013-01-22 01:39:00,21.6,3.5,30.00,WNW,295,6.0,6.0,45,0.00,,,0.00,0,Wunderground v.1.15,2013-01-22 06:39:00,
2013-01-22 01:50:00,21.3,3.2,30.01,WSW,249,4.0,5.0,45,0.00,,,0.00,0,Wunderground v.1.15,2013-01-22 06:50:00,
2013-01-22 02:00:00,21.1,3.0,30.01,West,268,4.0,9.0,45,0.00,,,0.00,0,Wunderground v.1.15,2013-01-22 07:00:00,
2013-01-22 02:10:00,20.8,2.8,30.02,WSW,254,5.0,11.0,45,0.00,,,0.00,0,Wunderground v.1.15,2013-01-22 07:10:00,
2013-01-22 02:20:00,20.6,2.1,30.02,WSW,257,5.0,5.0,44,0.00,,,0.00,0,Wunderground v.1.15,2013-01-22 07:20:00,
2013-01-22 02:30:00,20.3,1.8,30.03,WSW,256,4.0,7.0,44,0.00,,,0.00,0,Wunderground v.1.15,2013-01-22 07:30:00,
2013-01-22 02:40:00,20.2,1.2,30.03,WSW,254,10.0,13.0,43,0.00,,,0.00,0,Wunderground v.1.15,2013-01-22 07:40:00,
2013-01-22 02:50:00,20.0,0.0,30.04,WSW,257,7.0,7.0,41,0.00,,,0.00,0,Wunderground v.1.15,2013-01-22 07:50:00,
2013-01-22 03:00:00,19.7,0.3,30.03,SW,232,6.0,12.0,42,0.00,,,0.00,0,Wunderground v.1.15,2013-01-22 08:00:00,
2013-01-22 03:10:00,19.7,0.3,30.04,WSW,248,7.0,7.0,42,0.00,,,0.00,0,Wunderground v.1.15,2013-01-22 08:10:00,
2013-01-22 03:20:00,19.5,0.6,30.04,West,264,4.0,5.0,43,0.00,,,0.00,0,Wunderground v.1.15,2013-01-22 08:20:00,
2013-01-22 03:30:00,19.3,0.9,30.05,WSW,254,7.0,7.0,44,0.00,,,0.00,0,Wunderground v.1.15,2013-01-22 08:30:00,
2013-01-22 03:40:00,19.0,1.1,30.05,WSW,248,4.0,7.0,45,0.00,,,0.00,0,Wunderground v.1.15,2013-01-22 08:40:00,
2013-01-22 03:50:00,18.8,1.4,30.05,WSW,256,4.0,4.0,46,0.00,,,0.00,0,Wunderground v.1.15,2013-01-22 08:50:00,
2013-01-22 04:00:00,18.5,1.6,30.05,West,259,4.0,4.0,47,0.00,,,0.00,0,Wunderground v.1.15,2013-01-22 09:00:00,
2013-01-22 04:10:00,18.3,1.9,30.06,WNW,290,6.0,8.0,48,0.00,,,0.00,0,Wunderground v.1.15,2013-01-22 09:10:00,
2013-01-22 04:20:00,18.1,2.1,30.05,West,259,5.0,5.0,49,0.00,,,0.00,0,Wunderground v.1.15,2013-01-22 09:20:00,
2013-01-22 04:30:00,17.9,2.4,30.06,West,267,5.0,5.0,50,0.00,,,0.00,0,Wunderground v.1.15,2013-01-22 09:30:00,
2013-01-22 04:40:00,17.7,2.2,30.06,WSW,242,3.0,5.0,50,0.00,,,0.00,0,Wunderground v.1.15,2013-01-22 09:40:00,
2013-01-22 04:50:00,17.6,2.1,30.07,West,265,3.0,4.0,50,0.00,,,0.00,0,Wunderground v.1.15,2013-01-22 09:50:00,
2013-01-22 05:00:00,17.5,2.4,30.07,WSW,254,3.0,5.0,51,0.00,,,0.00,0,Wunderground v.1.15,2013-01-22 10:00:00,
2013-01-22 05:10:00,17.3,1.8,30.08,West,273,5.0,5.0,50,0.00,,,0.00,0,Wunderground v.1.15,2013-01-22 10:10:00,
2013-01-22 05:20:00,17.2,2.1,30.08,West,269,3.0,3.0,51,0.00,,,0.00,0,Wunderground v.1.15,2013-01-22 10:20:00,
2013-01-22 05:30:00,17.0,2.4,30.09,West,275,1.0,1.0,52,0.00,,,0.00,0,Wunderground v.1.15,2013-01-22 10:30:00,
2013-01-22 05:40:00,16.8,2.6,30.09,West,259,2.0,6.0,53,0.00,,,0.00,0,Wunderground v.1.15,2013-01-22 10:40:00,
2013-01-22 05:50:00,16.7,2.5,30.10,West,259,4.0,4.0,53,0.00,,,0.00,0,Wunderground v.1.15,2013-01-22 10:50:00,
2013-01-22 06:00:00,16.6,2.4,30.11,West,279,2.0,2.0,53,0.00,,,0.00,0,Wunderground v.1.15,2013-01-22 11:00:00,
2013-01-22 06:10:00,16.4,2.2,30.12,West,269,1.0,1.0,53,0.00,,,0.00,0,Wunderground v.1.15,2013-01-22 11:10:00,
2013-01-22 06:20:00,16.1,1.9,30.12,WNW,301,2.0,2.0,53,0.00,,,0.00,0,Wunderground v.1.15,2013-01-22 11:20:00,
2013-01-22 06:30:00,15.8,1.3,30.13,West,277,2.0,2.0,52,0.00,,,0.00,0,Wunderground v.1.15,2013-01-22 11:30:00,
2013-01-22 06:40:00,15.5,1.4,30.13,WNW,296,1.0,1.0,53,0.00,,,0.00,0,Wunderground v.1.15,2013-01-22 11:40:00,
2013-01-22 06:50:00,15.3,1.2,30.14,West,262,2.0,2.0,53,0.00,,,0.00,0,Wunderground v.1.15,2013-01-22 11:50:00,
2013-01-22 07:00:00,15.1,-0.2,30.15,WSW,255,4.0,4.0,50,0.00,,,0.00,0,Wunderground v.1.15,2013-01-22 12:00:00,
2013-01-22 07:10:00,15.0,-1.2,30.15,West,278,2.0,2.0,48,0.00,,,0.00,0,Wunderground v.1.15,2013-01-22 12:10:00,
2013-01-22 07:20:00,14.9,-0.8,30.15,WNW,295,1.0,1.0,49,0.00,,,0.00,0,Wunderground v.1.15,2013-01-22 12:20:00,
2013-01-22 07:30:00,14.6,-1.6,30.16,NW,319,1.0,3.0,48,0.00,,,0.00,5,Wunderground v.1.15,2013-01-22 12:30:00,
2013-01-22 07:40:00,14.4,-1.7,30.17,West,279,1.0,1.0,48,0.00,,,0.00,9,Wunderground v.1.15,2013-01-22 12:40:00,
2013-01-22 07:50:00,14.4,-1.7,30.17,NW,320,1.0,1.0,48,0.00,,,0.00,18,Wunderground v.1.15,2013-01-22 12:50:00,
2013-01-22 08:00:00,14.4,-1.7,30.17,West,273,1.0,1.0,48,0.00,,,0.00,40,Wunderground v.1.15,2013-01-22 13:00:00,
2013-01-22 08:10:00,14.7,-1.9,30.17,WNW,298,1.0,1.0,47,0.00,,,0.00,62,Wunderground v.1.15,2013-01-22 13:10:00,
2013-01-22 08:20:00,15.1,-1.1,30.18,West,275,2.0,2.0,48,0.00,,,0.00,90,Wunderground v.1.15,2013-01-22 13:20:00,
2013-01-22 08:30:00,15.3,-0.9,30.18,West,259,2.0,4.0,48,0.00,,,0.00,118,Wunderground v.1.15,2013-01-22 13:30:00,
2013-01-22 08:40:00,15.5,-0.7,30.19,West,262,3.0,3.0,48,0.00,,,0.00,169,Wunderground v.1.15,2013-01-22 13:40:00,
2013-01-22 08:50:00,15.7,-0.5,30.19,West,259,3.0,15.0,48,0.00,,,0.00,165,Wunderground v.1.15,2013-01-22 13:50:00,
2013-01-22 09:00:00,15.8,-0.5,30.19,West,263,8.0,8.0,48,0.00,,,0.00,223,Wunderground v.1.15,2013-01-22 14:00:00,
2013-01-22 09:10:00,16.3,-0.4,30.20,West,269,6.0,6.0,47,0.00,,,0.00,236,Wunderground v.1.15,2013-01-22 14:10:00,
2013-01-22 09:20:00,16.2,-0.5,30.21,West,265,6.0,6.0,47,0.00,,,0.00,304,Wunderground v.1.15,2013-01-22 14:20:00,
2013-01-22 09:30:00,16.7,-1.0,30.21,West,266,5.0,10.0,45,0.00,,,0.00,218,Wunderground v.1.15,2013-01-22 14:30:00,
2013-01-22 09:40:00,17.2,-0.5,30.21,WSW,250,5.0,5.0,45,0.00,,,0.00,345,Wunderground v.1.15,2013-01-22 14:40:00,
2013-01-22 09:50:00,17.3,-1.4,30.21,West,265,6.0,9.0,43,0.00,,,0.00,367,Wunderground v.1.15,2013-01-22 14:50:00,
2013-01-22 09:59:00,17.3,-1.4,30.20,West,263,6.0,8.0,43,0.00,,,0.00,269,Wunderground v.1.15,2013-01-22 14:59:00,
2013-01-22 10:10:00,17.5,-1.2,30.21,West,269,5.0,5.0,43,0.00,,,0.00,253,Wunderground v.1.15,2013-01-22 15:10:00,
2013-01-22 10:20:00,17.0,-1.7,30.21,NW,315,5.0,5.0,43,0.00,,,0.00,330,Wunderground v.1.15,2013-01-22 15:20:00,
2013-01-22 10:30:00,16.4,-1.7,30.21,WNW,298,3.0,3.0,44,0.00,,,0.00,132,Wunderground v.1.15,2013-01-22 15:30:00,
2013-01-22 10:40:00,17.0,-0.7,30.22,WSW,251,2.0,5.0,45,0.00,,,0.00,454,Wunderground v.1.15,2013-01-22 15:40:00,
2013-01-22 10:50:00,17.5,-1.7,30.22,West,272,4.0,4.0,42,0.00,,,0.00,88,Wunderground v.1.15,2013-01-22 15:50:00,
2013-01-22 11:00:00,17.7,-1.5,30.22,WNW,285,3.0,3.0,42,0.00,,,0.00,77,Wunderground v.1.15,2013-01-22 16:00:00,
2013-01-22 11:10:00,18.3,-1.5,30.21,West,266,3.0,6.0,41,0.00,,,0.00,487,Wunderground v.1.15,2013-01-22 16:10:00,
2013-01-22 11:20:00,18.8,0.0,30.21,West,261,4.0,7.0,43,0.00,,,0.00,378,Wunderground v.1.15,2013-01-22 16:20:00,
2013-01-22 11:30:00,19.5,-0.9,30.21,WNW,296,5.0,5.0,40,0.00,,,0.00,492,Wunderground v.1.15,2013-01-22 16:30:00,
2013-01-22 11:40:00,19.4,0.0,30.20,West,274,5.0,5.0,42,0.00,,,0.00,251,Wunderground v.1.15,2013-01-22 16:40:00,
2013-01-22 11:50:00,20.0,-0.5,30.20,West,262,4.0,5.0,40,0.00,,,0.00,250,Wunderground v.1.15,2013-01-22 16:50:00,
2013-01-22 12:00:00,19.9,-0.1,30.19,West,273,6.0,7.0,41,0.00,,,0.00,98,Wunderground v.1.15,2013-01-22 17:00:00,
2013-01-22 12:10:00,19.9,-0.6,30.18,West,259,8.0,10.0,40,0.00,,,0.00,74,Wunderground v.1.15,2013-01-22 17:10:00,
2013-01-22 12:20:00,20.3,-0.8,30.17,WNW,296,6.0,6.0,39,0.00,,,0.00,72,Wunderground v.1.15,2013-01-22 17:20:00,
2013-01-22 12:30:00,20.6,-0.5,30.17,WSW,237,7.0,7.0,39,0.00,,,0.00,69,Wunderground v.1.15,2013-01-22 17:30:00,
2013-01-22 12:40:00,20.9,-0.2,30.17,WSW,258,8.0,9.0,39,0.00,,,0.00,77,Wunderground v.1.15,2013-01-22 17:40:00,
2013-01-22 12:50:00,21.0,-0.1,30.17,West,261,8.0,8.0,39,0.00,,,0.00,79,Wunderground v.1.15,2013-01-22 17:50:00,
2013-01-22 13:00:00,21.1,0.0,30.16,WSW,256,7.0,8.0,39,0.00,,,0.00,70,Wunderground v.1.15,2013-01-22 18:00:00,
2013-01-22 13:10:00,21.2,-0.5,30.16,NW,306,7.0,7.0,38,0.00,,,0.00,69,Wunderground v.1.15,2013-01-22 18:10:00,
2013-01-22 13:20:00,21.4,0.2,30.16,West,279,9.0,9.0,39,0.00,,,0.00,76,Wunderground v.1.15,2013-01-22 18:20:00,
2013-01-22 13:30:00,21.4,0.2,30.16,WNW,288,5.0,5.0,39,0.00,,,0.00,74,Wunderground v.1.15,2013-01-22 18:30:00,
2013-01-22 13:40:00,22.2,0.4,30.15,West,262,4.0,6.0,38,0.00,,,0.00,88,Wunderground v.1.15,2013-01-22 18:40:00,
2013-01-22 13:50:00,22.2,0.4,30.15,WSW,254,7.0,10.0,38,0.00,,,0.00,76,Wunderground v.1.15,2013-01-22 18:50:00,
2013-01-22 14:00:00,21.9,0.1,30.16,West,263,7.0,7.0,38,0.00,,,0.00,83,Wunderground v.1.15,2013-01-22 19:00:00,
2013-01-22 14:10:00,21.8,0.0,30.17,WSW,258,3.0,6.0,38,0.00,,,0.00,77,Wunderground v.1.15,2013-01-22 19:10:00,
2013-01-22 14:20:00,21.6,-0.1,30.17,WSW,258,9.0,9.0,38,0.00,,,0.00,67,Wunderground v.1.15,2013-01-22 19:20:00,
2013-01-22 14:30:00,21.7,0.0,30.17,WSW,258,8.0,12.0,38,0.00,,,0.00,93,Wunderground v.1.15,2013-01-22 19:30:00,
2013-01-22 14:40:00,21.6,-0.1,30.17,WSW,253,9.0,9.0,38,0.00,,,0.00,76,Wunderground v.1.15,2013-01-22 19:40:00,
2013-01-22 14:50:00,21.7,0.5,30.17,West,261,7.0,7.0,39,0.00,,,0.00,156,Wunderground v.1.15,2013-01-22 19:50:00,
2013-01-22 15:00:00,21.7,0.5,30.17,West,267,9.0,9.0,39,0.00,,,0.00,74,Wunderground v.1.15,2013-01-22 20:00:00,
2013-01-22 15:10:00,22.0,-0.3,30.18,West,279,8.0,9.0,37,0.00,,,0.00,188,Wunderground v.1.15,2013-01-22 20:10:00,
2013-01-22 15:20:00,21.6,-0.1,30.18,West,273,9.0,9.0,38,0.00,,,0.00,302,Wunderground v.1.15,2013-01-22 20:20:00,
2013-01-22 15:30:00,21.2,-0.5,30.18,WSW,249,6.0,13.0,38,0.00,,,0.00,257,Wunderground v.1.15,2013-01-22 20:30:00,
2013-01-22 15:40:00,20.4,-0.7,30.18,WNW,294,8.0,8.0,39,0.00,,,0.00,47,Wunderground v.1.15,2013-01-22 20:40:00,
2013-01-22 15:49:00,19.7,-0.2,30.18,West,267,7.0,7.0,41,0.00,,,0.00,141,Wunderground v.1.15,2013-01-22 20:49:00,
2013-01-22 16:00:00,19.8,-0.1,30.19,WNW,289,6.0,6.0,41,0.00,,,0.00,98,Wunderground v.1.15,2013-01-22 21:00:00,
2013-01-22 16:10:00,19.7,-0.2,30.19,West,275,4.0,6.0,41,0.00,,,0.00,111,Wunderground v.1.15,2013-01-22 21:10:00,
2013-01-22 16:20:00,19.7,0.3,30.19,West,275,4.0,10.0,42,0.00,,,0.00,33,Wunderground v.1.15,2013-01-22 21:20:00,
2013-01-22 16:30:00,19.7,0.3,30.20,WNW,292,6.0,6.0,42,0.00,,,0.00,84,Wunderground v.1.15,2013-01-22 21:30:00,
2013-01-22 16:40:00,19.7,0.3,30.20,WSW,255,7.0,7.0,42,0.00,,,0.00,44,Wunderground v.1.15,2013-01-22 21:40:00,
2013-01-22 16:50:00,19.4,0.5,30.20,West,271,7.0,7.0,43,0.00,,,0.00,19,Wunderground v.1.15,2013-01-22 21:50:00,
2013-01-22 17:00:00,19.0,0.6,30.21,West,265,4.0,4.0,44,0.00,,,0.00,12,Wunderground v.1.15,2013-01-22 22:00:00,
2013-01-22 17:10:00,18.8,0.5,30.21,WSW,253,4.0,5.0,44,0.00,,,0.00,9,Wunderground v.1.15,2013-01-22 22:10:00,
2013-01-22 17:19:00,18.5,0.2,30.21,WSW,257,4.0,4.0,44,0.00,,,0.00,0,Wunderground v.1.15,2013-01-22 22:19:00,
2013-01-22 17:30:00,18.3,0.0,30.22,WSW,238,6.0,6.0,44,0.00,,,0.00,0,Wunderground v.1.15,2013-01-22 22:30:00,
2013-01-22 17:40:00,18.1,0.3,30.22,WSW,248,4.0,4.0,45,0.00,,,0.00,0,Wunderground v.1.15,2013-01-22 22:40:00,
2013-01-22 17:50:00,17.9,0.6,30.23,West,268,2.0,2.0,46,0.00,,,0.00,0,Wunderground v.1.15,2013-01-22 22:50:00,
2013-01-22 18:00:00,17.6,0.3,30.24,West,264,1.0,2.0,46,0.00,,,0.00,0,Wunderground v.1.15,2013-01-22 23:00:00,
2013-01-22 18:10:00,17.6,0.8,30.24,West,267,1.0,2.0,47,0.00,,,0.00,0,Wunderground v.1.15,2013-01-22 23:10:00,
2013-01-22 18:20:00,17.5,0.7,30.24,West,267,2.0,2.0,47,0.00,,,0.00,0,Wunderground v.1.15,2013-01-22 23:20:00,
2013-01-22 18:29:00,17.5,0.7,30.25,West,264,1.0,1.0,47,0.00,,,0.00,0,Wunderground v.1.15,2013-01-22 23:29:00,
2013-01-22 18:40:00,17.3,0.5,30.25,WSW,255,1.0,3.0,47,0.00,,,0.00,0,Wunderground v.1.15,2013-01-22 23:40:00,
2013-01-22 18:50:00,17.0,0.7,30.25,NW,314,0.0,0.0,48,0.00,,,0.00,0,Wunderground v.1.15,2013-01-22 23:50:00,
2013-01-22 19:00:00,16.6,0.3,30.26,NW,316,0.0,0.0,48,0.00,,,0.00,0,Wunderground v.1.15,2013-01-23 00:00:00,
2013-01-22 19:09:00,16.8,0.5,30.26,ENE,65,0.0,0.0,48,0.00,,,0.00,0,Wunderground v.1.15,2013-01-23 00:09:00,
2013-01-22 19:20:00,16.5,0.6,30.26,North,9,0.0,0.0,49,0.00,,,0.00,0,Wunderground v.1.15,2013-01-23 00:20:00,
2013-01-22 19:30:00,15.6,0.7,30.26,North,9,0.0,0.0,51,0.00,,,0.00,0,Wunderground v.1.15,2013-01-23 00:30:00,
2013-01-22 19:40:00,16.1,0.7,30.27,WNW,290,0.0,0.0,50,0.00,,,0.00,0,Wunderground v.1.15,2013-01-23 00:40:00,
2013-01-22 19:50:00,16.2,1.2,30.27,West,281,0.0,1.0,51,0.00,,,0.00,0,Wunderground v.1.15,2013-01-23 00:50:00,
2013-01-22 20:00:00,16.1,1.1,30.27,WSW,248,0.0,0.0,51,0.00,,,0.00,0,Wunderground v.1.15,2013-01-23 01:00:00,
2013-01-22 20:10:00,16.1,1.1,30.28,WNW,285,0.0,0.0,51,0.00,,,0.00,0,Wunderground v.1.15,2013-01-23 01:10:00,
2013-01-22 20:20:00,15.8,1.3,30.28,WNW,285,0.0,0.0,52,0.00,,,0.00,0,Wunderground v.1.15,2013-01-23 01:20:00,
2013-01-22 20:30:00,15.7,1.2,30.28,WNW,285,0.0,0.0,52,0.00,,,0.00,0,Wunderground v.1.15,2013-01-23 01:30:00,
2013-01-22 20:40:00,15.8,1.3,30.28,WSW,256,0.0,5.0,52,0.00,,,0.00,0,Wunderground v.1.15,2013-01-23 01:40:00,
2013-01-22 20:50:00,16.0,1.4,30.28,West,273,0.0,0.0,52,0.00,,,0.00,0,Wunderground v.1.15,2013-01-23 01:50:00,
2013-01-22 21:00:00,15.9,1.4,30.28,WNW,288,0.0,0.0,52,0.00,,,0.00,0,Wunderground v.1.15,2013-01-23 02:00:00,
2013-01-22 21:10:00,16.0,1.4,30.28,WSW,258,1.0,4.0,52,0.00,,,0.00,0,Wunderground v.1.15,2013-01-23 02:10:00,
2013-01-22 21:20:00,16.1,1.1,30.28,WNW,292,0.0,0.0,51,0.00,,,0.00,0,Wunderground v.1.15,2013-01-23 02:20:00,
2013-01-22 21:30:00,16.2,1.2,30.28,West,261,2.0,2.0,51,0.00,,,0.00,0,Wunderground v.1.15,2013-01-23 02:30:00,
2013-01-22 21:40:00,16.3,1.3,30.28,WSW,255,1.0,1.0,51,0.00,,,0.00,0,Wunderground v.1.15,2013-01-23 02:40:00,
2013-01-22 21:50:00,16.2,1.2,30.28,WSW,255,0.0,0.0,51,0.00,,,0.00,0,Wunderground v.1.15,2013-01-23 02:50:00,
2013-01-22 22:00:00,16.0,1.4,30.28,West,261,0.0,0.0,52,0.00,,,0.00,0,Wunderground v.1.15,2013-01-23 03:00:00,
2013-01-22 22:09:00,15.9,1.4,30.28,West,279,0.0,0.0,52,0.00,,,0.00,0,Wunderground v.1.15,2013-01-23 03:09:00,
2013-01-22 22:20:00,15.7,1.6,30.28,West,268,0.0,0.0,53,0.00,,,0.00,0,Wunderground v.1.15,2013-01-23 03:20:00,
2013-01-22 22:29:00,15.5,1.8,30.29,West,278,0.0,0.0,54,0.00,,,0.00,0,Wunderground v.1.15,2013-01-23 03:29:00,
2013-01-22 22:40:00,15.3,2.0,30.29,WNW,283,0.0,0.0,55,0.00,,,0.00,0,Wunderground v.1.15,2013-01-23 03:40:00,
2013-01-22 22:49:00,15.0,2.1,30.29,NW,318,0.0,0.0,56,0.00,,,0.00,0,Wunderground v.1.15,2013-01-23 03:49:00,
2013-01-22 23:00:00,14.7,2.2,30.29,NW,318,0.0,0.0,57,0.00,,,0.00,0,Wunderground v.1.15,2013-01-23 04:00:00,
2013-01-22 23:10:00,14.5,2.4,30.29,NW,318,0.0,0.0,58,0.00,,,0.00,0,Wunderground v.1.15,2013-01-23 04:10:00,
2013-01-22 23:20:00,14.4,2.7,30.29,NW,318,0.0,0.0,59,0.00,,,0.00,0,Wunderground v.1.15,2013-01-23 04:20:00,
2013-01-22 23:30:00,14.2,2.5,30.29,NW,318,0.0,0.0,59,0.00,,,0.00,0,Wunderground v.1.15,2013-01-23 04:30:00,
2013-01-22 23:40:00,14.1,2.4,30.29,NW,318,0.0,0.0,59,0.00,,,0.00,0,Wunderground v.1.15,2013-01-23 04:40:00,
2013-01-22 23:50:00,14.0,2.7,30.29,NW,318,0.0,0.0,60,0.00,,,0.00,0,Wunderground v.1.15,2013-01-23 04:50:00,